Time;durP1;ratioP1;P1;durP2;ratioP2;P2;SDS_P1;SDS_P2;PMS_P1;PMS_P2;Temp;Humidity;BMP_temperature;BMP_pressure;BME280_temperature;BME280_humidity;BME280_pressure;Samples;Min_cycle;Max_cycle;Signal;HPM_P1;HPM_P2
2022/08/27 00:02:23;;;;;;;4.72;2.45;;;;;;;17.56;100.00;101651.91;5275808;28;20029;-66
2022/08/27 00:04:54;;;;;;;6.57;2.45;;;;;;;17.58;100.00;101655.22;5277995;28;20101;-66
2022/08/27 00:07:29;;;;;;;5.50;2.40;;;;;;;17.62;100.00;101650.47;5277741;28;20036;-66
2022/08/27 00:10:01;;;;;;;5.72;2.50;;;;;;;17.47;100.00;101650.19;5276439;28;20148;-66
2022/08/27 00:12:33;;;;;;;5.05;2.35;;;;;;;17.43;100.00;101647.03;5274737;28;20042;-67
2022/08/27 00:15:06;;;;;;;6.47;2.57;;;;;;;17.41;100.00;101658.75;5277796;28;20123;-66
2022/08/27 00:17:37;;;;;;;;;;;;;;;18.11;100.00;101646.25;5274675;28;20389;-67
2022/08/27 00:20:09;;;;;;;5.30;2.38;;;;;;;17.36;100.00;101648.63;5277143;28;19998;-67
2022/08/27 00:22:40;;;;;;;5.57;2.42;;;;;;;17.33;100.00;101643.63;5277593;28;20052;-67
2022/08/27 00:25:12;;;;;;;6.13;2.40;;;;;;;17.34;100.00;101634.69;5277464;28;20033;-67
2022/08/27 00:27:44;;;;;;;5.88;2.53;;;;;;;17.26;100.00;101639.94;5276734;28;20032;-68
2022/08/27 00:30:18;;;;;;;6.95;2.22;;;;;;;17.16;100.00;101637.41;5276733;28;20028;-66
2022/08/27 00:32:50;;;;;;;6.72;2.47;;;;;;;17.09;100.00;101633.69;5276131;28;20037;-68
2022/08/27 00:35:21;;;;;;;5.53;2.50;;;;;;;16.95;100.00;101634.22;5276094;28;20041;-67
2022/08/27 00:37:53;;;;;;;5.55;2.55;;;;;;;17.05;100.00;101640.28;5276937;28;20429;-67
2022/08/27 00:40:24;;;;;;;6.20;2.30;;;;;;;16.97;100.00;101640.19;5276982;28;20025;-68
2022/08/27 00:42:56;;;;;;;4.85;2.17;;;;;;;16.94;100.00;101633.41;5259367;28;20051;-66
2022/08/27 00:45:35;;;;;;;5.68;2.38;;;;;;;16.96;100.00;101643.84;5276093;28;20036;-66
2022/08/27 00:48:09;;;;;;;4.38;2.47;;;;;;;16.81;100.00;101640.06;5276239;28;20479;-67
2022/08/27 00:50:45;;;;;;;5.03;2.35;;;;;;;16.82;100.00;101628.47;5276549;28;20025;-68
2022/08/27 00:53:21;;;;;;;3.80;2.15;;;;;;;16.85;100.00;101638.75;5275779;28;20499;-68
2022/08/27 00:56:03;;;;;;;7.47;2.83;;;;;;;16.81;100.00;101640.06;5276765;28;20028;-67
2022/08/27 00:58:38;;;;;;;5.65;2.92;;;;;;;16.64;100.00;101637.22;5277288;28;20035;-66
2022/08/27 01:01:16;;;;;;;5.95;2.47;;;;;;;16.73;100.00;101644.28;5276747;28;20099;-68
2022/08/27 01:03:51;;;;;;;6.85;2.40;;;;;;;16.63;100.00;101640.88;5273807;28;20032;-66
2022/08/27 01:06:27;;;;;;;4.53;2.55;;;;;;;16.66;100.00;101642.34;5276903;28;20459;-66
2022/08/27 01:09:06;;;;;;;7.18;3.20;;;;;;;16.65;100.00;101640.72;5276900;28;20047;-67
2022/08/27 01:11:38;;;;;;;5.60;3.33;;;;;;;16.48;100.00;101634.44;5275371;28;20029;-67
2022/08/27 01:14:09;;;;;;;7.45;2.97;;;;;;;16.42;100.00;101640.31;5276925;28;20028;-66
2022/08/27 01:16:46;;;;;;;6.82;3.05;;;;;;;16.49;100.00;101636.09;5277430;28;20020;-66
2022/08/27 01:19:32;;;;;;;5.65;2.88;;;;;;;16.58;100.00;101637.81;5274712;28;21039;-67
2022/08/27 01:22:21;;;;;;;5.47;3.58;;;;;;;16.59;100.00;101634.19;5276000;28;20161;-66
2022/08/27 01:25:00;;;;;;;9.57;3.50;;;;;;;16.50;100.00;101629.81;5276159;28;20475;-67
2022/08/27 01:27:31;;;;;;;6.28;3.08;;;;;;;16.36;100.00;101633.78;5275480;28;20073;-66
2022/08/27 01:30:05;;;;;;;4.93;3.10;;;;;;;16.38;100.00;101625.72;5276310;28;20012;-66
2022/08/27 01:32:37;;;;;;;6.38;2.78;;;;;;;16.34;100.00;101629.63;5276597;28;20486;-68
2022/08/27 01:35:10;;;;;;;6.18;3.20;;;;;;;16.34;100.00;101624.34;5276590;28;20028;-67
2022/08/27 01:37:45;;;;;;;6.35;3.55;;;;;;;16.24;100.00;101627.88;5274961;28;20043;-66
2022/08/27 01:40:18;;;;;;;5.95;3.33;;;;;;;16.20;100.00;101623.84;5275807;28;20025;-66
2022/08/27 01:42:52;;;;;;;7.55;3.58;;;;;;;16.19;100.00;101632.78;5276729;28;20042;-66
2022/08/27 01:45:28;;;;;;;5.82;3.17;;;;;;;16.21;100.00;101622.91;5276555;28;20017;-66
2022/08/27 01:48:00;;;;;;;5.45;3.17;;;;;;;16.10;100.00;101631.03;5275669;28;21145;-67
2022/08/27 01:50:37;;;;;;;5.65;3.53;;;;;;;16.12;100.00;101623.78;5274881;28;20024;-68
2022/08/27 01:55:44;;;;;;;5.50;2.97;;;;;;;16.01;100.00;101629.25;5269141;28;20044;-67
2022/08/27 01:58:18;;;;;;;6.72;3.63;;;;;;;15.99;100.00;101629.41;5274967;28;20722;-68
2022/08/27 02:00:53;;;;;;;5.53;3.67;;;;;;;16.01;100.00;101621.31;5275239;28;20107;-69
2022/08/27 02:03:25;;;;;;;5.05;2.97;;;;;;;15.97;100.00;101619.94;5270876;28;20108;-68
2022/08/27 02:05:57;;;;;;;8.32;3.42;;;;;;;15.97;100.00;101622.59;5273003;28;20471;-69
2022/08/27 02:08:28;;;;;;;7.95;3.45;;;;;;;15.94;100.00;101618.41;5276544;28;20032;-69
2022/08/27 02:11:00;;;;;;;6.55;3.50;;;;;;;15.91;100.00;101618.75;5274352;28;20029;-69
2022/08/27 02:13:31;;;;;;;5.47;3.73;;;;;;;15.90;100.00;101614.41;5276252;28;20036;-68
2022/08/27 02:16:04;;;;;;;4.57;3.08;;;;;;;15.90;100.00;101606.47;5276333;28;20024;-68
2022/08/27 02:18:37;;;;;;;8.65;3.92;;;;;;;15.79;100.00;101607.50;5275982;28;20066;-67
2022/08/27 02:21:09;;;;;;;10.82;3.92;;;;;;;15.77;100.00;101609.47;5270487;28;20024;-70
2022/08/27 02:23:41;;;;;;;7.00;3.65;;;;;;;15.67;100.00;101606.03;5274889;28;20025;-69
2022/08/27 02:26:12;;;;;;;9.60;4.18;;;;;;;15.72;100.00;101608.22;5274895;28;20028;-69
2022/08/27 02:28:44;;;;;;;5.88;3.58;;;;;;;15.67;100.00;101598.09;5272504;28;20031;-67
2022/08/27 02:31:17;;;;;;;7.15;3.58;;;;;;;15.65;100.00;101605.34;5273267;28;20434;-69
2022/08/27 02:33:48;;;;;;;;;;;;;;;16.35;100.00;101603.03;5276709;28;20281;-68
2022/08/27 02:36:19;;;;;;;6.35;3.28;;;;;;;15.67;100.00;101600.75;5270127;28;19916;-67
2022/08/27 02:38:50;;;;;;;4.75;3.83;;;;;;;15.61;100.00;101596.03;5276496;28;20494;-67
2022/08/27 02:41:22;;;;;;;6.80;3.58;;;;;;;15.58;100.00;101601.59;5274936;28;20111;-67
2022/08/27 02:43:53;;;;;;;7.20;3.95;;;;;;;15.50;100.00;101604.13;5273464;28;20029;-67
2022/08/27 02:46:25;;;;;;;5.15;3.72;;;;;;;15.47;100.00;101599.94;5274035;28;20017;-67
2022/08/27 02:48:56;;;;;;;5.78;3.70;;;;;;;15.48;100.00;101606.88;5276314;28;20083;-67
2022/08/27 02:51:28;;;;;;;7.03;4.38;;;;;;;15.51;100.00;101603.13;5272829;28;20483;-70
2022/08/27 02:54:01;;;;;;;7.35;4.22;;;;;;;15.50;100.00;101601.47;5273194;28;20084;-68
2022/08/27 02:56:32;;;;;;;9.35;4.50;;;;;;;15.50;100.00;101602.31;5271021;28;20021;-67
2022/08/27 02:59:04;;;;;;;10.52;4.63;;;;;;;15.52;100.00;101605.63;5275309;28;20021;-67
2022/08/27 03:01:35;;;;;;;7.22;4.80;;;;;;;15.51;100.00;101593.41;5271800;28;20023;-68
2022/08/27 03:04:07;;;;;;;12.15;5.60;;;;;;;15.64;100.00;101598.34;5272790;28;20403;-67
2022/08/27 03:06:39;;;;;;;9.27;5.00;;;;;;;15.67;100.00;101603.38;5276338;28;20121;-68
2022/08/27 03:09:10;;;;;;;8.50;4.70;;;;;;;15.66;100.00;101606.19;5270040;28;20058;-67
2022/08/27 03:11:41;;;;;;;10.27;5.00;;;;;;;15.70;100.00;101608.38;5272382;28;20032;-69
2022/08/27 03:14:13;;;;;;;11.00;5.25;;;;;;;15.74;100.00;101599.19;5274673;28;20020;-67
2022/08/27 03:16:44;;;;;;;7.50;4.78;;;;;;;15.80;100.00;101600.44;5274824;28;20032;-68
2022/08/27 03:19:16;;;;;;;9.18;4.95;;;;;;;15.85;100.00;101598.16;5272809;28;20028;-67
2022/08/27 03:21:47;;;;;;;6.32;4.25;;;;;;;15.82;100.00;101609.03;5275196;28;20023;-69
2022/08/27 03:24:18;;;;;;;8.02;4.65;;;;;;;15.87;100.00;101605.94;5270174;28;20020;-68
2022/08/27 03:26:50;;;;;;;7.40;4.68;;;;;;;15.85;100.00;101592.88;5272660;28;20016;-67
2022/08/27 03:29:21;;;;;;;7.05;4.47;;;;;;;15.90;100.00;101609.13;5274980;28;20024;-67
2022/08/27 03:31:53;;;;;;;7.45;4.95;;;;;;;15.78;100.00;101583.88;5274101;28;20024;-68
2022/08/27 03:34:24;;;;;;;7.20;4.53;;;;;;;15.85;100.00;101599.97;5274627;28;20016;-67
2022/08/27 03:36:55;;;;;;;6.00;4.78;;;;;;;15.89;100.00;101602.19;5272933;28;20021;-67
2022/08/27 03:39:27;;;;;;;6.78;4.28;;;;;;;15.86;100.00;101604.28;5269632;28;20391;-69
2022/08/27 03:41:58;;;;;;;7.82;4.75;;;;;;;15.85;100.00;101607.91;5272750;28;20453;-67
2022/08/27 03:44:30;;;;;;;6.57;4.53;;;;;;;15.85;100.00;101606.09;5271064;28;20090;-68
2022/08/27 03:47:01;;;;;;;6.13;4.78;;;;;;;15.80;100.00;101605.72;5272266;28;20356;-67
2022/08/27 03:49:33;;;;;;;9.20;5.22;;;;;;;15.77;100.00;101606.81;5272254;28;20409;-69
2022/08/27 03:52:04;;;;;;;9.60;4.55;;;;;;;15.71;100.00;101609.22;5274283;28;20032;-67
2022/08/27 03:54:37;;;;;;;8.48;5.15;;;;;;;15.70;100.00;101613.66;5270586;28;20503;-68
2022/08/27 03:57:08;;;;;;;4.93;4.35;;;;;;;15.71;100.00;101612.69;5269597;28;20028;-67
2022/08/27 03:59:39;;;;;;;6.38;4.88;;;;;;;15.69;100.00;101606.72;5273496;28;20043;-69
2022/08/27 04:02:11;;;;;;;8.93;4.78;;;;;;;15.64;100.00;101611.56;5268991;28;20169;-67
2022/08/27 04:04:42;;;;;;;9.18;4.60;;;;;;;15.67;100.00;101606.03;5271683;28;20032;-70
2022/08/27 04:07:13;;;;;;;8.07;4.88;;;;;;;15.67;100.00;101603.38;5270238;28;20373;-67
2022/08/27 04:09:45;;;;;;;6.80;4.53;;;;;;;15.70;100.00;101602.28;5271495;28;20024;-69
2022/08/27 04:12:16;;;;;;;8.25;5.15;;;;;;;15.72;100.00;101610.88;5272482;28;20408;-69
2022/08/27 04:14:47;;;;;;;8.05;4.72;;;;;;;15.74;100.00;101603.63;5274030;28;20029;-67
2022/08/27 04:17:19;;;;;;;10.88;4.95;;;;;;;15.71;100.00;101604.75;5269618;28;20390;-69
2022/08/27 04:19:51;;;;;;;8.95;4.82;;;;;;;15.58;100.00;101578.66;5271459;28;20035;-68
2022/08/27 04:22:22;;;;;;;7.75;4.45;;;;;;;15.70;100.00;101596.97;5273162;28;20281;-69
2022/08/27 04:24:54;;;;;;;10.65;4.60;;;;;;;15.67;100.00;101598.09;5272510;28;20074;-67
2022/08/27 04:27:26;;;;;;;8.50;4.88;;;;;;;15.64;100.00;101602.81;5271037;28;20078;-69
2022/08/27 04:29:59;;;;;;;6.13;4.45;;;;;;;15.65;100.00;101602.72;5268238;28;20029;-67
2022/08/27 04:32:30;;;;;;;8.80;4.78;;;;;;;15.57;100.00;101606.03;5275179;28;20585;-67
2022/08/27 04:35:02;;;;;;;10.70;5.05;;;;;;;15.58;100.00;101604.22;5272900;28;20073;-66
2022/08/27 04:37:33;;;;;;;6.70;4.82;;;;;;;15.53;100.00;101604.66;5272444;28;20031;-68
2022/08/27 04:40:05;;;;;;;9.85;4.50;;;;;;;15.41;100.00;101597.03;5273647;28;20110;-69
2022/08/27 04:42:36;;;;;;;10.68;4.85;;;;;;;15.47;100.00;101610.50;5271631;28;20056;-67
2022/08/27 04:45:08;;;;;;;9.15;4.85;;;;;;;15.39;100.00;101612.22;5271389;28;20032;-67
2022/08/27 04:47:40;;;;;;;11.65;5.18;;;;;;;15.39;100.00;101613.03;5273016;28;20027;-68
2022/08/27 04:50:11;;;;;;;9.48;4.70;;;;;;;15.41;100.00;101624.28;5272401;28;20119;-66
2022/08/27 04:52:42;;;;;;;8.38;4.70;;;;;;;15.43;100.00;101610.94;5271379;28;20020;-69
2022/08/27 04:55:14;;;;;;;7.63;5.10;;;;;;;15.46;100.00;101611.50;5271137;28;20759;-67
2022/08/27 04:57:45;;;;;;;10.82;5.03;;;;;;;15.45;100.00;101611.63;5272940;28;20086;-68
2022/08/27 05:00:17;;;;;;;8.35;4.88;;;;;;;15.50;100.00;101612.88;5272162;28;20028;-67
2022/08/27 05:02:48;;;;;;;10.13;5.65;;;;;;;15.56;100.00;101622.00;5272557;28;20475;-68
2022/08/27 05:05:19;;;;;;;7.75;5.40;;;;;;;15.58;100.00;101623.53;5272621;28;20018;-67
2022/08/27 05:07:51;;;;;;;9.23;5.40;;;;;;;15.64;100.00;101622.13;5271347;28;20025;-67
2022/08/27 05:10:22;;;;;;;8.45;5.28;;;;;;;15.69;100.00;101627.84;5270038;28;20020;-67
2022/08/27 05:12:53;;;;;;;9.77;5.40;;;;;;;15.69;100.00;101625.22;5272137;28;20044;-68
2022/08/27 05:15:24;;;;;;;14.00;5.80;;;;;;;15.74;100.00;101612.41;5272401;28;20020;-67
2022/08/27 05:17:59;;;;;;;8.48;5.40;;;;;;;15.74;100.00;101620.31;5268590;28;20030;-67
2022/08/27 05:20:32;;;;;;;8.90;5.40;;;;;;;15.85;100.00;101621.94;5270503;28;20024;-67
2022/08/27 05:23:03;;;;;;;14.50;6.07;;;;;;;15.90;100.00;101619.69;5272666;28;20519;-68
2022/08/27 05:25:43;;;;;;;8.68;5.78;;;;;;;16.07;100.00;101619.91;5272701;28;20103;-69
2022/08/27 05:28:16;;;;;;;9.02;5.50;;;;;;;15.99;100.00;101623.28;5268727;28;20476;-67
2022/08/27 05:30:50;;;;;;;12.70;5.22;;;;;;;15.93;100.00;101619.41;5270273;28;20083;-67
2022/08/27 05:33:24;;;;;;;9.93;5.53;;;;;;;16.15;100.00;101625.28;5270985;28;20028;-68
2022/08/27 05:35:57;;;;;;;9.60;5.75;;;;;;;16.15;100.00;101620.00;5259249;28;20037;-67
2022/08/27 05:38:29;;;;;;;10.07;5.45;;;;;;;16.23;100.00;101625.38;5270960;28;20016;-70
2022/08/27 05:41:10;;;;;;;12.15;6.18;;;;;;;16.36;100.00;101627.66;5273369;28;20391;-68
2022/08/27 05:43:43;;;;;;;9.77;5.90;;;;;;;16.40;100.00;101631.66;5272409;28;20032;-69
2022/08/27 05:46:16;;;;;;;7.40;5.22;;;;;;;16.39;100.00;101624.72;5268848;28;20064;-67
2022/08/27 05:48:49;;;;;;;10.45;6.10;;;;;;;16.40;100.00;101631.66;5274627;28;20021;-66
2022/08/27 05:51:27;;;;;;;12.43;6.15;;;;;;;16.55;100.00;101632.81;5273459;28;20560;-69
2022/08/27 05:54:02;;;;;;;9.55;6.07;;;;;;;16.48;100.00;101629.13;5270215;28;20075;-68
2022/08/27 05:56:35;;;;;;;8.40;5.63;;;;;;;16.50;100.00;101632.44;5273099;28;20115;-67
2022/08/27 06:01:57;;;;;;;7.30;5.15;;;;;;;16.57;100.00;101632.69;5263907;28;20025;-68
2022/08/27 06:04:28;;;;;;;9.77;5.85;;;;;;;16.67;100.00;101631.66;5272677;28;20021;-68
2022/08/27 06:07:00;;;;;;;8.15;5.57;;;;;;;16.69;100.00;101634.97;5274335;28;20016;-67
2022/08/27 06:09:31;;;;;;;6.75;5.85;;;;;;;16.64;100.00;101639.06;5275531;28;20031;-68
2022/08/27 06:12:02;;;;;;;11.15;5.28;;;;;;;16.75;100.00;101644.97;5271963;28;20027;-67
2022/08/27 06:14:35;;;;;;;10.88;6.63;;;;;;;16.80;100.00;101647.16;5275160;28;20035;-67
2022/08/27 06:17:07;;;;;;;9.75;5.93;;;;;;;16.78;100.00;101647.31;5274853;28;20025;-67
2022/08/27 06:19:38;;;;;;;7.65;4.93;;;;;;;16.89;100.00;101650.72;5271589;28;20027;-67
2022/08/27 06:22:09;;;;;;;9.90;5.55;;;;;;;16.88;100.00;101657.00;5275713;28;20021;-67
2022/08/27 06:24:41;;;;;;;9.30;5.93;;;;;;;16.94;100.00;101649.28;5275836;28;20033;-67
2022/08/27 06:27:16;;;;;;;8.60;6.25;;;;;;;17.00;100.00;101651.31;5273128;28;20033;-67
2022/08/27 06:29:47;;;;;;;10.10;6.07;;;;;;;16.92;100.00;101647.78;5272753;28;20479;-67
2022/08/27 06:32:18;;;;;;;10.57;6.22;;;;;;;16.98;100.00;101645.34;5271701;28;20043;-67
2022/08/27 06:34:50;;;;;;;9.65;6.70;;;;;;;17.06;100.00;101646.41;5272450;28;20103;-69
2022/08/27 06:37:21;;;;;;;10.00;6.70;;;;;;;17.06;100.00;101641.94;5274904;28;20124;-67
2022/08/27 06:39:52;;;;;;;11.68;7.07;;;;;;;17.13;100.00;101656.22;5273193;28;20057;-69
2022/08/27 06:42:24;;;;;;;8.75;6.32;;;;;;;17.26;100.00;101651.34;5274399;28;20017;-67
2022/08/27 06:44:58;;;;;;;8.13;6.18;;;;;;;17.36;100.00;101648.63;5259013;28;20347;-67
2022/08/27 06:47:31;;;;;;;9.95;6.60;;;;;;;17.33;100.00;101640.16;5256841;28;20032;-67
2022/08/27 06:50:03;;;;;;;7.45;6.18;;;;;;;17.51;100.00;101640.94;5271492;28;20024;-68
2022/08/27 06:52:34;;;;;;;7.32;5.75;;;;;;;17.52;100.00;101643.44;5272166;28;20472;-70
2022/08/27 06:55:06;;;;;;;7.97;5.88;;;;;;;17.59;100.00;101646.28;5273229;28;20080;-67
2022/08/27 06:57:37;;;;;;;10.70;6.32;;;;;;;17.54;100.00;101637.13;5273350;28;20158;-68
2022/08/27 07:00:09;;;;;;;8.32;5.80;;;;;;;17.79;100.00;101644.28;5273540;28;20458;-68
2022/08/27 07:02:40;;;;;;;8.68;5.28;;;;;;;17.79;100.00;101648.75;5274687;28;20027;-67
2022/08/27 07:05:12;;;;;;;10.45;5.90;;;;;;;17.82;100.00;101643.97;5265939;28;20498;-68
2022/08/27 07:07:43;;;;;;;12.98;6.55;;;;;;;17.88;100.00;101645.13;5271181;28;20108;-68
2022/08/27 07:10:14;;;;;;;10.85;5.72;;;;;;;17.94;100.00;101649.81;5273755;28;20077;-67
2022/08/27 07:12:45;;;;;;;10.17;5.30;;;;;;;17.98;100.00;101654.63;5274574;28;20013;-67
2022/08/27 07:15:17;;;;;;;10.68;6.13;;;;;;;18.16;100.00;101656.38;5272545;28;20025;-69
2022/08/27 07:17:48;;;;;;;11.25;5.05;;;;;;;18.19;100.00;101653.41;5270871;28;20067;-68
2022/08/27 07:20:20;;;;;;;8.10;5.30;;;;;;;18.33;100.00;101654.59;5273343;28;20467;-70
2022/08/27 07:22:53;;;;;;;7.78;5.10;;;;;;;18.31;100.00;101657.44;5271256;28;20392;-68
2022/08/27 07:25:25;;;;;;;10.13;5.68;;;;;;;18.35;100.00;101657.94;5273435;28;20021;-68
2022/08/27 07:27:56;;;;;;;8.48;5.85;;;;;;;18.47;100.00;101656.63;5273429;28;20016;-68
2022/08/27 07:30:27;;;;;;;7.95;4.97;;;;;;;18.52;100.00;101656.16;5274410;28;20020;-68
2022/08/27 07:32:59;;;;;;;9.07;5.00;;;;;;;18.55;100.00;101654.00;5273542;28;20017;-68
2022/08/27 07:35:30;;;;;;;9.35;5.43;;;;;;;18.60;100.00;101641.09;5270763;28;20024;-70
2022/08/27 07:38:02;;;;;;;7.97;4.93;;;;;;;18.75;100.00;101657.22;5266966;28;20032;-68
2022/08/27 07:40:33;;;;;;;8.10;4.80;;;;;;;18.77;100.00;101654.41;5265871;28;20393;-70
2022/08/27 07:45:59;;;;;;;6.57;4.10;;;;;;;18.92;100.00;101656.25;5267903;28;20040;-67
2022/08/27 07:48:33;;;;;;;9.10;4.35;;;;;;;18.85;100.00;101663.22;5269425;28;20032;-69
2022/08/27 07:51:04;;;;;;;7.55;4.35;;;;;;;18.91;100.00;101664.38;5269210;28;20513;-68
2022/08/27 07:53:36;;;;;;;7.65;4.55;;;;;;;18.99;100.00;101671.53;5270731;28;20053;-68
2022/08/27 07:56:07;;;;;;;8.43;3.93;;;;;;;19.18;100.00;101679.16;5263797;28;20119;-69
2022/08/27 07:58:40;;;;;;;5.63;3.77;;;;;;;19.20;100.00;101675.31;5268885;28;20025;-68
2022/08/27 08:01:12;;;;;;;9.60;4.38;;;;;;;19.32;100.00;101675.00;5265684;28;20109;-69
2022/08/27 08:03:43;;;;;;;7.15;3.45;;;;;;;19.41;100.00;101668.69;5265770;28;20107;-68
2022/08/27 08:06:16;;;;;;;6.55;3.38;;;;;;;19.51;100.00;101679.13;5268087;28;20024;-69
2022/08/27 08:08:47;;;;;;;9.13;3.90;;;;;;;19.54;100.00;101682.28;5267083;28;20027;-68
2022/08/27 08:11:19;;;;;;;8.37;3.27;;;;;;;19.68;100.00;101673.66;5268225;28;20021;-68
2022/08/27 08:13:50;;;;;;;7.13;3.37;;;;;;;19.71;100.00;101666.34;5266664;28;20025;-68
2022/08/27 08:16:23;;;;;;;7.17;3.60;;;;;;;19.78;100.00;101667.34;5270387;28;20051;-68
2022/08/27 08:18:55;;;;;;;6.47;3.30;;;;;;;19.84;100.00;101671.94;5267693;28;20166;-68
2022/08/27 08:21:26;;;;;;;6.78;3.60;;;;;;;20.07;100.00;101678.19;5267439;28;20103;-68
2022/08/27 08:23:58;;;;;;;5.63;3.10;;;;;;;20.24;100.00;101680.78;5269019;28;20031;-68
2022/08/27 08:26:30;;;;;;;6.40;2.83;;;;;;;20.28;100.00;101682.09;5269604;28;20021;-68
2022/08/27 08:29:03;;;;;;;7.00;3.40;;;;;;;20.48;100.00;101679.84;5268099;28;20358;-68
2022/08/27 08:31:35;;;;;;;4.40;3.03;;;;;;;20.55;100.00;101680.81;5267839;28;20016;-68
2022/08/27 08:34:07;;;;;;;4.97;2.90;;;;;;;20.61;100.00;101675.63;5267462;28;20028;-69
2022/08/27 08:36:38;;;;;;;7.23;3.00;;;;;;;20.84;100.00;101685.47;5268009;28;20016;-68
2022/08/27 08:39:09;;;;;;;8.33;3.40;;;;;;;20.98;100.00;101681.19;5269382;28;20033;-68
2022/08/27 08:41:47;;;;;;;6.90;3.67;;;;;;;21.10;100.00;101682.44;5271505;28;20043;-68
2022/08/27 08:44:32;;;;;;;6.25;3.08;;;;;;;21.29;100.00;101675.78;5265635;28;20483;-68
2022/08/27 08:47:18;;;;;;;7.15;3.50;;;;;;;21.51;100.00;101668.78;5268275;28;20100;-69
2022/08/27 08:50:09;;;;;;;6.18;3.22;;;;;;;21.77;100.00;101679.00;5272736;28;20029;-68
2022/08/27 08:53:00;;;;;;;5.03;2.65;;;;;;;21.93;100.00;101672.66;5267096;28;20511;-69
2022/08/27 08:56:06;;;;;;;6.15;2.75;;;;;;;22.06;100.00;101672.84;5268664;28;20515;-68
2022/08/27 08:58:48;;;;;;;8.90;3.50;;;;;;;22.14;100.00;101671.94;5270675;28;20677;-69
2022/08/27 09:01:21;;;;;;;7.57;2.80;;;;;;;22.34;100.00;101686.34;5266010;28;20118;-68
2022/08/27 09:04:05;;;;;;;6.10;2.70;;;;;;;22.66;100.00;101677.06;5268763;28;20624;-69
2022/08/27 09:06:48;;;;;;;7.32;2.25;;;;;;;22.59;100.00;101673.50;5270294;28;20059;-69
2022/08/27 09:09:23;;;;;;;5.05;2.53;;;;;;;22.46;100.00;101682.19;5267571;28;20024;-69
2022/08/27 09:12:18;;;;;;;4.93;2.10;;;;;;;22.53;100.00;101688.41;5268558;28;20158;-69
2022/08/27 09:15:09;;;;;;;3.67;1.45;;;;;;;22.19;100.00;101680.22;5267190;28;20027;-69
2022/08/27 09:17:40;;;;;;;4.75;1.63;;;;;;;21.95;100.00;101684.81;5265685;28;20036;-69
2022/08/27 09:20:16;;;;;;;4.57;1.60;;;;;;;21.84;100.00;101688.75;5268323;28;20027;-69
2022/08/27 09:23:00;;;;;;;3.42;1.65;;;;;;;21.98;100.00;101686.28;5270768;28;20024;-69
2022/08/27 09:25:35;;;;;;;4.07;1.85;;;;;;;22.05;100.00;101693.38;5267639;28;20032;-69
2022/08/27 09:31:07;;;;;;;3.30;1.77;;;;;;;22.43;100.00;101676.41;5270558;28;20033;-69
2022/08/27 09:33:38;;;;;;;4.75;1.90;;;;;;;22.47;100.00;101683.84;5266501;28;20498;-69
2022/08/27 09:36:13;;;;;;;5.13;2.10;;;;;;;22.54;100.00;101678.56;5267889;28;20033;-69
2022/08/27 09:39:00;;;;;;;4.57;1.98;;;;;;;22.54;100.00;101682.09;5269347;28;20414;-69
2022/08/27 09:41:46;;;;;;;4.18;1.80;;;;;;;22.37;100.00;101690.50;5268391;28;20020;-69
2022/08/27 09:44:19;;;;;;;3.58;2.13;;;;;;;22.11;100.00;101689.94;5249922;28;20120;-69
2022/08/27 09:47:02;;;;;;;4.07;1.92;;;;;;;22.43;100.00;101693.25;5270212;28;20024;-69
2022/08/27 09:49:35;;;;;;;4.93;1.90;;;;;;;22.37;100.00;101688.66;5269251;28;20423;-69
2022/08/27 09:52:07;;;;;;;7.28;2.10;;;;;;;22.52;100.00;101681.44;5250563;28;20052;-69
2022/08/27 09:54:43;;;;;;;5.87;1.90;;;;;;;22.86;100.00;101690.63;5270001;28;20071;-69
2022/08/27 09:57:31;;;;;;;4.78;1.90;;;;;;;23.11;100.00;101688.44;5268408;28;20267;-69
2022/08/27 10:00:06;;;;;;;4.50;1.88;;;;;;;23.13;100.00;101698.91;5267553;28;20029;-68
2022/08/27 10:02:49;;;;;;;4.43;1.75;;;;;;;23.37;100.00;101690.47;5270152;28;20020;-68
2022/08/27 10:05:28;;;;;;;6.32;1.85;;;;;;;23.62;100.00;101693.53;5266499;28;20068;-68
2022/08/27 10:08:09;;;;;;;3.63;1.90;;;;;;;23.77;100.00;101693.47;5268974;28;20040;-68
2022/08/27 10:11:00;;;;;;;3.08;1.80;;;;;;;23.92;100.00;101694.16;5266197;28;20019;-68
2022/08/27 10:14:13;;;;;;;5.00;2.00;;;;;;;23.74;100.00;101688.50;5251961;28;20027;-68
2022/08/27 10:16:53;;;;;;;;;;;;;;;24.52;100.00;101687.25;5174061;28;20378;-68
2022/08/27 10:19:58;;;;;;;4.53;1.75;;;;;;;24.01;100.00;101673.41;5173822;28;19945;-68
2022/08/27 10:22:40;;;;;;;6.55;2.30;;;;;;;23.58;100.00;101681.59;5251546;28;20383;-68
2022/08/27 10:25:39;;;;;;;3.65;1.92;;;;;;;23.71;100.00;101681.69;5266991;28;20174;-68
2022/08/27 10:28:22;;;;;;;4.95;2.08;;;;;;;23.48;100.00;101686.44;5270639;28;20156;-68
2022/08/27 10:31:31;;;;;;;4.35;2.15;;;;;;;23.57;100.00;101681.78;5272799;28;20020;-69
2022/08/27 10:34:10;;;;;;;5.38;2.38;;;;;;;23.71;100.00;101678.19;5271773;28;20065;-69
2022/08/27 10:37:02;;;;;;;5.28;2.03;;;;;;;24.06;100.00;101667.47;5270084;28;20040;-69
2022/08/27 10:39:50;;;;;;;3.47;1.80;;;;;;;23.93;100.00;101669.06;5268858;28;20053;-69
2022/08/27 10:42:29;;;;;;;4.50;2.00;;;;;;;23.79;100.00;101676.19;5270588;28;20031;-69
2022/08/27 10:45:22;;;;;;;5.25;2.53;;;;;;;23.84;100.00;101664.91;5269009;28;20487;-69
2022/08/27 10:47:53;;;;;;;;;;;;;;;24.39;100.00;101672.97;5267950;28;20099;-69
2022/08/27 10:50:43;;;;;;;4.15;2.05;;;;;;;23.60;100.00;101666.19;5269884;28;20008;-69
2022/08/27 10:53:26;;;;;;;4.90;1.77;;;;;;;23.54;100.00;101669.63;5272829;28;20040;-71
2022/08/27 10:56:29;;;;;;;5.47;1.85;;;;;;;23.65;100.00;101670.94;5250747;28;20059;-69
2022/08/27 10:59:20;;;;;;;5.78;2.20;;;;;;;23.59;100.00;101669.84;5258550;28;20052;-69
2022/08/27 11:02:24;;;;;;;4.70;2.10;;;;;;;23.52;100.00;101669.84;5270166;28;20036;-69
2022/08/27 11:05:01;;;;;;;7.25;2.30;;;;;;;23.20;100.00;101678.41;5268472;28;20165;-68
2022/08/27 11:07:37;;;;;;;5.07;1.90;;;;;;;23.31;100.00;101672.53;5269349;28;20119;-68
2022/08/27 11:10:17;;;;;;;6.63;1.98;;;;;;;23.17;100.00;101674.28;5270791;28;20395;-68
2022/08/27 11:12:53;;;;;;;4.57;1.60;;;;;;;23.34;100.00;101674.03;5269283;28;20379;-69
2022/08/27 11:15:33;;;;;;;7.40;1.88;;;;;;;23.30;100.00;101677.06;5267713;28;20124;-69
2022/08/27 11:18:15;;;;;;;3.78;1.90;;;;;;;23.43;100.00;101673.66;5268050;28;20404;-69
2022/08/27 11:20:58;;;;;;;5.20;1.63;;;;;;;23.45;100.00;101663.59;5266336;28;20033;-68
2022/08/27 11:23:44;;;;;;;3.50;1.70;;;;;;;23.70;100.00;101663.16;5267923;28;20386;-69
2022/08/27 11:26:15;;;;;;;7.55;2.33;;;;;;;23.61;100.00;101664.31;5265435;28;20028;-68
2022/08/27 11:28:54;;;;;;;4.30;1.77;;;;;;;23.69;100.00;101664.19;5270708;28;20024;-70
2022/08/27 11:31:28;;;;;;;7.70;2.03;;;;;;;23.66;100.00;101662.72;5271029;28;20104;-69
2022/08/27 11:34:45;;;;;;;6.05;1.90;;;;;;;23.91;100.00;101655.06;5270955;28;20107;-70
2022/08/27 11:37:29;;;;;;;4.15;1.40;;;;;;;23.79;100.00;101656.66;5267462;28;20029;-69
2022/08/27 11:40:37;;;;;;;3.78;1.48;;;;;;;24.01;100.00;101657.34;5269759;28;20078;-69
2022/08/27 11:43:13;;;;;;;5.53;2.00;;;;;;;23.77;100.00;101661.34;5272793;28;20418;-69
2022/08/27 11:45:57;;;;;;;5.45;1.90;;;;;;;24.14;100.00;101653.91;5270917;28;20024;-69
2022/08/27 11:48:32;;;;;;;4.50;1.42;;;;;;;24.43;100.00;101656.28;5272467;28;20031;-69
2022/08/27 11:51:11;;;;;;;3.38;1.40;;;;;;;24.36;100.00;101665.31;5270605;28;20021;-69
2022/08/27 11:53:56;;;;;;;6.28;1.23;;;;;;;24.12;100.00;101655.97;5270825;28;20052;-69
2022/08/27 11:56:27;;;;;;;2.40;1.20;;;;;;;23.77;100.00;101656.00;5270106;28;20483;-69
2022/08/27 11:59:27;;;;;;;3.03;1.60;;;;;;;24.02;100.00;101653.66;5268639;28;20036;-69
2022/08/27 12:02:24;;;;;;;3.72;1.42;;;;;;;23.96;100.00;101657.13;5270843;28;20019;-69
2022/08/27 12:05:39;;;;;;;3.22;1.48;;;;;;;24.12;100.00;101656.78;5274775;28;20569;-69
2022/08/27 12:08:13;;;;;;;4.88;1.60;;;;;;;23.81;100.00;101654.59;5203751;28;20673;-69